Time;durP1;ratioP1;P1;durP2;ratioP2;P2;SDS_P1;SDS_P2;PMS_P1;PMS_P2;Temp;Humidity;BMP_temperature;BMP_pressure;BME280_temperature;BME280_humidity;BME280_pressure;Samples;Min_cycle;Max_cycle;Signal;HPM_P1;HPM_P2
2021/04/17 08:42:45;;;;;;;6.03;1.60;;;14.60;88.10;;;;;;6096890;23;20199;-70
2021/04/17 08:45:14;;;;;;;3.40;1.80;;;15.40;87.40;;;;;;6097318;23;20194;-73
2021/04/17 08:47:50;;;;;;;3.57;1.60;;;15.80;85.90;;;;;;6096948;23;20204;-72
2021/04/17 08:50:28;;;;;;;4.43;1.90;;;15.20;86.30;;;;;;6097269;23;20211;-70
2021/04/17 08:52:57;;;;;;;2.73;1.70;;;15.90;85.50;;;;;;6092636;23;20219;-70
2021/04/17 08:55:24;;;;;;;4.13;1.90;;;16.00;84.10;;;;;;6098651;23;20207;-72
2021/04/17 08:58:17;;;;;;;3.90;1.77;;;15.90;84.70;;;;;;6098954;23;20199;-72
2021/04/17 09:01:07;;;;;;;5.63;1.83;;;16.20;84.50;;;;;;6099018;23;20262;-72
2021/04/17 09:03:40;;;;;;;4.40;1.67;;;16.00;83.80;;;;;;6098637;23;20668;-72
2021/04/17 09:06:07;;;;;;;3.77;2.10;;;15.40;84.80;;;;;;6098895;23;20191;-72
2021/04/17 09:08:37;;;;;;;2.33;1.77;;;15.80;83.10;;;;;;6099089;23;20183;-72
2021/04/17 09:11:36;;;;;;;2.73;1.80;;;15.80;83.10;;;;;;6099023;23;20262;-72
2021/04/17 09:14:03;;;;;;;5.93;2.00;;;15.70;84.60;;;;;;6098870;23;20241;-72
2021/04/17 09:16:40;;;;;;;3.67;1.70;;;15.20;83.90;;;;;;6098677;23;20215;-72
2021/04/17 09:19:06;;;;;;;4.27;1.80;;;14.90;85.30;;;;;;6098765;23;20187;-72
2021/04/17 09:21:34;;;;;;;3.17;1.70;;;15.20;85.20;;;;;;6098555;23;20539;-72
2021/04/17 09:24:02;;;;;;;2.77;1.57;;;15.20;85.30;;;;;;6098864;23;20186;-73
2021/04/17 09:26:42;;;;;;;4.20;1.70;;;15.20;84.30;;;;;;6098511;23;20203;-73
2021/04/17 09:29:24;;;;;;;4.43;1.57;;;14.90;86.00;;;;;;6098301;23;20184;-72
2021/04/17 09:31:51;;;;;;;4.13;1.30;;;15.10;85.00;;;;;;6098301;23;20668;-72
2021/04/17 09:34:18;;;;;;;3.80;1.60;;;15.10;84.30;;;;;;6098591;23;20207;-72
2021/04/17 09:36:48;;;;;;;3.37;1.37;;;14.40;85.50;;;;;;6098458;23;20222;-73
2021/04/17 09:39:30;;;;;;;2.97;1.50;;;13.80;87.30;;;;;;6098699;23;20183;-71
2021/04/17 09:41:59;;;;;;;3.17;1.50;;;13.60;88.80;;;;;;6098072;23;20195;-72
2021/04/17 09:44:40;;;;;;;3.13;1.60;;;13.90;88.50;;;;;;6098267;23;20190;-73
2021/04/17 09:47:09;;;;;;;3.40;1.40;;;13.40;88.00;;;;;;6097811;23;20203;-73
2021/04/17 09:49:38;;;;;;;4.07;1.50;;;13.20;90.00;;;;;;6098434;23;20226;-72
2021/04/17 09:52:05;;;;;;;2.67;1.53;;;12.80;88.90;;;;;;6097740;23;20184;-73
2021/04/17 09:54:32;;;;;;;3.87;1.23;;;12.60;89.60;;;;;;6098238;23;20188;-73
2021/04/17 09:57:06;;;;;;;4.43;1.20;;;12.40;89.90;;;;;;6097952;23;20686;-73
2021/04/17 09:59:33;;;;;;;1.97;1.10;;;12.00;89.70;;;;;;6098464;23;20180;-73
2021/04/17 10:01:59;;;;;;;3.37;1.57;;;11.80;89.90;;;;;;6098133;23;20188;-73
2021/04/17 10:04:47;;;;;;;2.53;1.37;;;11.70;89.80;;;;;;6098006;23;20179;-72
2021/04/17 10:07:13;;;;;;;2.10;1.23;;;11.80;89.50;;;;;;6098076;23;20278;-72
2021/04/17 10:09:39;;;;;;;3.07;1.30;;;12.00;90.10;;;;;;6098381;23;20187;-73
2021/04/17 10:12:08;;;;;;;2.20;1.20;;;12.10;89.90;;;;;;6098207;23;20184;-72
2021/04/17 10:14:35;;;;;;;4.47;1.03;;;12.30;88.50;;;;;;6098614;23;20231;-72
2021/04/17 10:17:02;;;;;;;3.90;1.43;;;12.40;88.60;;;;;;6098178;23;20204;-71
2021/04/17 10:19:30;;;;;;;4.17;1.60;;;12.30;87.30;;;;;;6098191;23;20183;-72
2021/04/17 10:21:58;;;;;;;3.10;1.30;;;12.20;88.30;;;;;;6097949;23;20180;-72
2021/04/17 10:24:26;;;;;;;1.90;1.30;;;12.10;87.80;;;;;;6098012;23;20254;-72
2021/04/17 10:26:55;;;;;;;3.27;1.53;;;11.90;86.40;;;;;;6097858;23;20207;-72
2021/04/17 10:29:36;;;;;;;1.63;0.80;;;12.00;87.90;;;;;;6097918;23;20262;-72
2021/04/17 10:32:04;;;;;;;1.93;1.10;;;12.10;86.00;;;;;;6097839;23;20711;-73
2021/04/17 10:34:31;;;;;;;3.17;1.50;;;12.10;86.50;;;;;;6098295;23;20179;-71
2021/04/17 10:37:00;;;;;;;1.73;1.03;;;12.10;88.30;;;;;;6097706;23;20218;-72
2021/04/17 10:39:26;;;;;;;1.90;1.00;;;12.30;86.10;;;;;;6097525;23;20650;-71
2021/04/17 10:42:07;;;;;;;4.80;1.30;;;12.60;88.50;;;;;;6097331;23;20191;-71
2021/04/17 10:44:34;;;;;;;2.70;1.07;;;12.60;85.10;;;;;;6098088;23;20250;-70
2021/04/17 10:47:03;;;;;;;2.10;1.23;;;12.30;86.00;;;;;;6098029;23;20200;-72
2021/04/17 10:49:34;;;;;;;2.70;1.40;;;12.10;86.60;;;;;;6097888;23;20186;-72
2021/04/17 10:52:04;;;;;;;4.47;1.47;;;12.30;85.80;;;;;;6098008;23;20266;-72
2021/04/17 10:54:30;;;;;;;3.00;1.30;;;12.50;85.70;;;;;;6097949;23;20180;-72
2021/04/17 10:57:07;;;;;;;3.80;1.30;;;12.80;86.10;;;;;;6097204;23;20547;-72
2021/04/17 10:59:53;;;;;;;2.03;1.33;;;13.10;86.30;;;;;;6097445;23;20230;-71
2021/04/17 11:02:23;;;;;;;2.33;1.50;;;13.50;83.60;;;;;;6097363;23;20187;-72
2021/04/17 11:04:50;;;;;;;3.93;1.50;;;13.50;83.20;;;;;;6097840;23;20187;-72
2021/04/17 11:07:16;;;;;;;6.03;1.30;;;13.30;83.30;;;;;;6097554;23;20283;-72
2021/04/17 11:09:46;;;;;;;6.10;1.47;;;13.40;83.80;;;;;;6097765;23;20190;-72
2021/04/17 11:12:23;;;;;;;2.83;1.60;;;13.40;83.90;;;;;;6097095;23;20515;-72
2021/04/17 11:14:49;;;;;;;2.47;1.20;;;13.40;83.80;;;;;;6097474;23;20499;-72
2021/04/17 11:17:18;;;;;;;3.57;1.33;;;13.10;82.10;;;;;;6097056;23;20209;-72
2021/04/17 11:19:44;;;;;;;2.60;1.40;;;12.90;82.50;;;;;;6097124;23;20654;-73
2021/04/17 11:22:13;;;;;;;2.77;1.37;;;12.90;83.40;;;;;;6096999;23;20191;-73
2021/04/17 11:24:40;;;;;;;1.70;1.10;;;12.90;84.00;;;;;;6097216;23;20226;-73
2021/04/17 11:27:07;;;;;;;2.00;1.20;;;13.00;83.00;;;;;;6097389;23;20205;-73
2021/04/17 11:29:33;;;;;;;2.70;1.13;;;12.80;83.80;;;;;;6097674;23;20179;-73
2021/04/17 11:32:00;;;;;;;1.87;1.03;;;12.90;83.70;;;;;;6097446;23;20203;-71
2021/04/17 11:34:27;;;;;;;4.13;1.53;;;13.00;82.70;;;;;;6097604;23;20184;-73
2021/04/17 11:36:53;;;;;;;3.77;1.50;;;12.80;82.80;;;;;;6097355;23;20219;-73
2021/04/17 11:39:19;;;;;;;4.73;1.57;;;12.90;83.00;;;;;;6097547;23;20179;-73
2021/04/17 11:41:46;;;;;;;1.30;1.10;;;13.00;82.50;;;;;;6096710;23;20650;-73
2021/04/17 11:44:13;;;;;;;1.70;1.17;;;13.00;82.50;;;;;;6097399;23;20183;-72
2021/04/17 11:46:39;;;;;;;3.47;1.30;;;13.50;83.00;;;;;;6097165;23;20203;-73
2021/04/17 11:49:06;;;;;;;2.77;1.60;;;13.80;82.80;;;;;;6097291;23;20180;-73
2021/04/17 11:51:33;;;;;;;3.73;1.40;;;13.70;81.50;;;;;;6097431;23;20274;-73
2021/04/17 11:53:59;;;;;;;2.77;1.40;;;13.60;81.50;;;;;;6097251;23;20626;-72
2021/04/17 11:56:26;;;;;;;2.17;1.30;;;13.30;81.50;;;;;;6096598;23;20211;-72
2021/04/17 11:58:53;;;;;;;2.70;1.47;;;13.00;81.40;;;;;;6096900;23;20191;-73
2021/04/17 12:01:19;;;;;;;5.57;2.00;;;12.90;81.90;;;;;;6097588;23;20183;-73
2021/04/17 12:03:46;;;;;;;2.00;1.30;;;13.00;82.10;;;;;;6097351;23;20192;-72
2021/04/17 12:06:13;;;;;;;1.87;1.30;;;12.90;82.10;;;;;;6096571;23;20749;-73
2021/04/17 12:08:41;;;;;;;2.50;1.37;;;12.80;82.70;;;;;;6097240;23;20179;-72
2021/04/17 12:11:07;;;;;;;2.80;1.43;;;12.70;82.80;;;;;;6097305;23;20211;-73
2021/04/17 12:13:34;;;;;;;2.10;1.40;;;12.70;80.80;;;;;;6097082;23;20186;-73
2021/04/17 12:16:01;;;;;;;2.97;1.40;;;12.70;82.50;;;;;;6096890;23;20208;-72
2021/04/17 12:18:27;;;;;;;1.93;1.40;;;12.90;82.30;;;;;;6097230;23;20250;-72
2021/04/17 12:20:53;;;;;;;2.70;1.43;;;13.20;82.40;;;;;;6096825;23;20238;-71
2021/04/17 12:23:20;;;;;;;2.53;1.50;;;13.30;82.00;;;;;;6098404;23;20210;-72
2021/04/17 12:25:47;;;;;;;3.60;1.70;;;13.30;81.90;;;;;;6097303;23;20242;-71
2021/04/17 12:28:13;;;;;;;2.27;1.23;;;13.20;81.60;;;;;;6097584;23;20208;-73
2021/04/17 12:30:39;;;;;;;2.10;1.30;;;12.90;81.50;;;;;;6097548;23;20194;-72
2021/04/17 12:33:07;;;;;;;2.67;1.40;;;13.10;81.50;;;;;;6097573;23;20209;-71
2021/04/17 12:35:33;;;;;;;2.57;1.40;;;13.50;80.70;;;;;;6097600;23;20680;-72
2021/04/17 12:38:00;;;;;;;1.97;1.27;;;13.80;80.60;;;;;;6096986;23;20211;-73
2021/04/17 12:40:26;;;;;;;2.00;1.23;;;13.80;80.70;;;;;;6096922;23;20198;-72
2021/04/17 12:42:53;;;;;;;1.63;1.10;;;13.90;79.90;;;;;;6097269;23;20187;-73
2021/04/17 12:45:21;;;;;;;2.03;1.17;;;13.80;79.80;;;;;;6097328;23;20191;-73
2021/04/17 12:47:47;;;;;;;3.53;2.07;;;13.30;80.60;;;;;;6097112;23;20210;-72
2021/04/17 12:50:14;;;;;;;2.57;1.23;;;13.20;80.20;;;;;;6097113;23;20184;-72
2021/04/17 12:52:41;;;;;;;2.70;1.20;;;13.20;82.30;;;;;;6097425;23;20179;-72
2021/04/17 12:55:08;;;;;;;6.93;1.50;;;13.20;80.90;;;;;;6097131;23;20254;-73
2021/04/17 12:57:35;;;;;;;3.90;1.67;;;13.00;80.10;;;;;;6096864;23;20203;-72
2021/04/17 13:00:03;;;;;;;3.07;1.63;;;12.90;81.00;;;;;;6097011;23;20184;-72
2021/04/17 13:02:30;;;;;;;3.03;1.20;;;13.10;82.60;;;;;;6096887;23;20183;-70
2021/04/17 13:04:56;;;;;;;4.97;1.30;;;13.40;81.60;;;;;;6097095;23;20187;-72
2021/04/17 13:07:22;;;;;;;2.40;1.17;;;13.50;81.60;;;;;;6097156;23;20200;-73
2021/04/17 13:09:48;;;;;;;1.97;1.17;;;13.30;80.60;;;;;;6097104;23;20180;-73
2021/04/17 13:12:15;;;;;;;3.13;1.27;;;13.00;80.50;;;;;;6096675;23;20184;-72
2021/04/17 13:14:41;;;;;;;3.23;1.23;;;12.90;82.20;;;;;;6097076;23;20510;-73
2021/04/17 13:17:08;;;;;;;1.80;0.97;;;12.90;80.70;;;;;;6096779;23;20222;-72
2021/04/17 13:19:34;;;;;;;1.90;1.33;;;13.20;79.80;;;;;;6097511;23;20497;-72
2021/04/17 13:22:00;;;;;;;3.13;1.00;;;13.30;79.90;;;;;;6096679;23;20779;-72
2021/04/17 13:24:27;;;;;;;1.80;1.20;;;13.40;80.00;;;;;;6096535;23;20191;-73
2021/04/17 13:26:53;;;;;;;1.77;1.10;;;13.50;79.80;;;;;;6097874;23;20210;-72
2021/04/17 13:29:19;;;;;;;2.10;1.17;;;13.60;80.70;;;;;;6098777;23;20180;-73
2021/04/17 13:31:46;;;;;;;2.17;1.20;;;13.50;80.30;;;;;;6098770;23;20188;-72
2021/04/17 13:34:13;;;;;;;2.40;1.30;;;13.60;80.30;;;;;;6098593;23;20490;-72
2021/04/17 13:36:39;;;;;;;2.20;1.53;;;13.60;79.00;;;;;;6098386;23;20219;-72
2021/04/17 13:39:06;;;;;;;2.00;1.23;;;13.50;79.40;;;;;;6098624;23;20183;-71
2021/04/17 13:41:33;;;;;;;3.57;1.20;;;13.50;79.20;;;;;;6098015;23;20229;-72
2021/04/17 13:43:59;;;;;;;2.63;1.20;;;13.40;77.80;;;;;;6098572;23;20190;-73
2021/04/17 13:46:25;;;;;;;3.60;2.00;;;13.40;80.60;;;;;;6098555;23;20200;-73
2021/04/17 13:48:52;;;;;;;2.30;1.53;;;13.50;80.00;;;;;;6098522;23;20186;-72
2021/04/17 13:51:19;;;;;;;3.27;1.20;;;13.40;80.60;;;;;;6098390;23;20202;-73
2021/04/17 13:53:45;;;;;;;3.50;1.30;;;13.40;79.70;;;;;;6098211;23;20203;-72
2021/04/17 13:56:11;;;;;;;3.07;1.67;;;13.50;80.50;;;;;;6098047;23;20223;-73
2021/04/17 13:58:38;;;;;;;1.53;0.97;;;13.50;80.10;;;;;;6098059;23;20187;-72
2021/04/17 14:01:06;;;;;;;1.47;1.10;;;13.60;78.90;;;;;;6098181;23;20207;-72
2021/04/17 14:03:32;;;;;;;3.43;1.60;;;13.60;78.30;;;;;;6098497;23;20387;-72
2021/04/17 14:05:59;;;;;;;2.97;1.47;;;13.50;78.10;;;;;;6098069;23;20254;-73
2021/04/17 14:08:26;;;;;;;2.43;1.10;;;13.30;78.90;;;;;;6098296;23;20259;-73
2021/04/17 14:10:52;;;;;;;1.60;1.17;;;13.20;80.70;;;;;;6097802;23;20188;-71
2021/04/17 14:13:19;;;;;;;2.13;1.57;;;13.30;79.20;;;;;;6098280;23;20180;-70
2021/04/17 14:15:45;;;;;;;2.63;1.17;;;13.40;79.60;;;;;;6098197;23;20203;-71
2021/04/17 14:18:12;;;;;;;3.70;1.13;;;13.40;80.20;;;;;;6098224;23;20199;-72
2021/04/17 14:20:38;;;;;;;1.93;1.23;;;13.50;79.30;;;;;;6098426;23;20195;-72
2021/04/17 14:23:04;;;;;;;1.00;0.90;;;13.80;79.70;;;;;;6098075;23;20180;-71
2021/04/17 14:25:31;;;;;;;4.17;1.40;;;13.80;79.20;;;;;;6097970;23;20183;-72
2021/04/17 14:27:58;;;;;;;1.60;1.00;;;13.70;77.40;;;;;;6097720;23;20678;-71
2021/04/17 14:30:25;;;;;;;2.47;1.30;;;13.50;77.70;;;;;;6098109;23;20184;-72
2021/04/17 14:32:51;;;;;;;2.77;1.93;;;13.40;77.60;;;;;;6097849;23;20186;-72
2021/04/17 14:35:22;;;;;;;4.20;1.47;;;13.40;76.60;;;;;;6098024;23;20207;-70
2021/04/17 14:37:48;;;;;;;3.67;1.70;;;13.50;76.20;;;;;;6098197;23;20206;-72
2021/04/17 14:40:15;;;;;;;6.07;1.40;;;13.50;77.10;;;;;;6098007;23;20188;-72
2021/04/17 14:42:42;;;;;;;1.90;0.90;;;13.60;77.70;;;;;;6097704;23;20187;-71
2021/04/17 14:45:10;;;;;;;2.20;1.00;;;13.80;78.70;;;;;;6097925;23;20187;-71
2021/04/17 14:47:36;;;;;;;1.83;1.00;;;13.80;76.10;;;;;;6098129;23;20207;-70
2021/04/17 14:50:04;;;;;;;3.00;1.40;;;13.70;77.30;;;;;;6097800;23;20214;-71
2021/04/17 14:52:30;;;;;;;2.10;1.40;;;13.70;77.70;;;;;;6097767;23;20190;-71
2021/04/17 14:54:59;;;;;;;3.67;1.40;;;14.00;78.70;;;;;;6097720;23;20183;-71
2021/04/17 14:57:25;;;;;;;1.50;1.00;;;14.20;77.80;;;;;;6097667;23;20207;-70
2021/04/17 14:59:52;;;;;;;1.83;1.10;;;14.20;76.50;;;;;;6097774;23;20180;-70
2021/04/17 15:02:18;;;;;;;3.33;1.50;;;14.20;77.90;;;;;;6097240;23;20643;-72
2021/04/17 15:04:45;;;;;;;1.80;1.00;;;14.00;77.90;;;;;;6097406;23;20658;-72
2021/04/17 15:07:11;;;;;;;4.77;1.23;;;13.80;77.60;;;;;;6097715;23;20199;-71
2021/04/17 15:09:37;;;;;;;2.27;1.50;;;13.50;78.20;;;;;;6097244;23;20551;-71
2021/04/17 15:12:04;;;;;;;2.67;1.13;;;13.50;79.60;;;;;;6097354;23;20214;-71
2021/04/17 15:14:30;;;;;;;1.37;1.10;;;13.60;77.90;;;;;;6097947;23;20248;-72
2021/04/17 15:16:57;;;;;;;2.43;1.20;;;13.70;77.30;;;;;;6097608;23;20274;-71
2021/04/17 15:19:24;;;;;;;6.60;1.73;;;13.60;77.50;;;;;;6097594;23;20183;-71
2021/04/17 15:21:50;;;;;;;1.17;0.90;;;13.70;78.30;;;;;;6097231;23;20183;-71
2021/04/17 15:24:18;;;;;;;2.17;1.00;;;13.80;77.80;;;;;;6097399;23;20184;-71
2021/04/17 15:26:45;;;;;;;2.37;1.10;;;14.00;79.00;;;;;;6097560;23;20207;-71
2021/04/17 15:29:12;;;;;;;6.07;1.20;;;14.20;77.60;;;;;;6097229;23;20726;-71
2021/04/17 15:31:40;;;;;;;2.57;0.93;;;14.20;78.70;;;;;;6097157;23;20183;-72
2021/04/17 15:34:08;;;;;;;2.10;1.17;;;14.00;79.30;;;;;;6097400;23;20192;-72
2021/04/17 15:36:35;;;;;;;2.37;1.20;;;13.80;80.80;;;;;;6097185;23;20218;-72
2021/04/17 15:39:03;;;;;;;1.87;0.97;;;13.70;80.00;;;;;;6097598;23;20183;-71
2021/04/17 15:41:30;;;;;;;1.47;1.07;;;13.60;80.60;;;;;;6096994;23;20187;-70
2021/04/17 15:43:56;;;;;;;2.97;1.30;;;13.70;81.10;;;;;;6097019;23;20262;-72
2021/04/17 15:46:22;;;;;;;1.87;1.07;;;13.60;81.40;;;;;;6097004;23;20184;-71
2021/04/17 15:48:49;;;;;;;1.77;0.90;;;13.80;80.20;;;;;;6097537;23;20181;-71
2021/04/17 15:51:16;;;;;;;2.17;0.90;;;13.90;79.50;;;;;;6097501;23;20211;-72
2021/04/17 15:53:43;;;;;;;3.73;1.40;;;13.90;78.30;;;;;;6097052;23;20531;-70
2021/04/17 15:56:10;;;;;;;5.10;1.10;;;14.00;79.10;;;;;;6096642;23;20203;-72
2021/04/17 16:15:17;;;;;;;2.80;0.90;;;13.30;80.30;;;;;;6096893;23;20187;-72
2021/04/17 16:18:00;;;;;;;2.10;1.10;;;13.30;80.60;;;;;;6097146;23;20203;-72
2021/04/17 16:20:26;;;;;;;2.73;1.00;;;13.40;80.60;;;;;;6097116;23;20180;-72
2021/04/17 16:22:53;;;;;;;3.33;0.90;;;13.50;80.40;;;;;;6097194;23;20186;-73
2021/04/17 16:25:20;;;;;;;1.37;0.90;;;13.60;80.20;;;;;;6096999;23;20238;-72
2021/04/17 16:27:46;;;;;;;2.70;0.90;;;13.40;80.90;;;;;;6097006;23;20223;-72
2021/04/17 16:30:14;;;;;;;3.10;1.10;;;13.40;82.60;;;;;;6097111;23;20189;-72
2021/04/17 16:32:40;;;;;;;2.50;1.00;;;13.40;81.80;;;;;;6097351;23;20194;-72
2021/04/17 16:35:08;;;;;;;2.70;0.97;;;13.40;80.90;;;;;;6097009;23;20634;-71
2021/04/17 16:37:35;;;;;;;3.10;0.90;;;13.30;80.30;;;;;;6096730;23;20234;-72
2021/04/17 16:40:04;;;;;;;1.70;0.80;;;13.20;81.00;;;;;;6097188;23;20201;-71
2021/04/17 16:42:30;;;;;;;1.30;0.80;;;13.20;81.50;;;;;;6096986;23;20190;-71
2021/04/17 16:44:58;;;;;;;2.30;0.93;;;13.30;81.00;;;;;;6096807;23;20651;-71
2021/04/17 16:47:24;;;;;;;3.60;0.90;;;13.30;80.60;;;;;;6096957;23;20207;-73
2021/04/17 16:49:50;;;;;;;2.10;0.90;;;13.30;81.50;;;;;;6097196;23;20183;-70
2021/04/17 16:52:17;;;;;;;4.87;1.00;;;13.20;81.00;;;;;;6097205;23;20184;-71
2021/04/17 16:54:43;;;;;;;1.33;1.10;;;13.00;81.00;;;;;;6096813;23;20192;-72
2021/04/17 16:57:11;;;;;;;4.33;1.43;;;12.90;81.10;;;;;;6096293;23;20212;-72
2021/04/17 16:59:37;;;;;;;1.57;0.83;;;12.80;82.50;;;;;;6097007;23;20180;-72
2021/04/17 17:02:05;;;;;;;2.47;1.07;;;12.90;82.80;;;;;;6099013;23;20266;-72
2021/04/17 17:04:31;;;;;;;3.30;1.20;;;13.00;81.80;;;;;;6098332;23;20599;-72
2021/04/17 17:06:57;;;;;;;2.30;0.77;;;13.00;81.80;;;;;;6098814;23;20208;-71
2021/04/17 17:09:24;;;;;;;1.87;0.90;;;13.00;81.20;;;;;;6098878;23;20194;-71
2021/04/17 17:11:50;;;;;;;1.00;0.80;;;13.00;79.90;;;;;;6098145;23;20190;-72
2021/04/17 17:14:17;;;;;;;3.30;1.10;;;12.90;80.80;;;;;;6098695;23;20183;-72
2021/04/17 17:16:44;;;;;;;1.87;0.90;;;12.90;81.20;;;;;;6098225;23;20219;-72
2021/04/17 17:19:10;;;;;;;2.67;1.00;;;12.80;81.80;;;;;;6098682;23;20179;-72
2021/04/17 17:21:37;;;;;;;2.93;1.20;;;12.80;82.60;;;;;;6098619;23;20179;-71
2021/04/17 17:24:03;;;;;;;2.47;1.30;;;12.80;83.30;;;;;;6098459;23;20710;-71
2021/04/17 17:26:29;;;;;;;4.87;1.57;;;12.80;82.50;;;;;;6098289;23;20211;-72
2021/04/17 17:28:56;;;;;;;2.53;0.90;;;12.70;83.30;;;;;;6098632;23;20188;-71
2021/04/17 17:31:23;;;;;;;2.33;1.10;;;12.70;83.20;;;;;;6098814;23;20191;-72
2021/04/17 17:33:49;;;;;;;2.40;1.00;;;12.80;83.70;;;;;;6098873;23;20179;-72
2021/04/17 17:36:15;;;;;;;1.97;1.30;;;12.70;83.90;;;;;;6098427;23;20238;-72
2021/04/17 17:38:41;;;;;;;1.97;1.27;;;12.60;83.90;;;;;;6098717;23;20179;-73
2021/04/17 17:41:09;;;;;;;1.30;0.93;;;12.50;84.40;;;;;;6098129;23;20296;-73
2021/04/17 17:43:36;;;;;;;2.97;1.33;;;12.60;84.50;;;;;;6098663;23;20203;-73
2021/04/17 17:46:02;;;;;;;1.43;1.00;;;12.60;84.40;;;;;;6098654;23;20190;-70
2021/04/17 17:48:29;;;;;;;2.03;1.10;;;12.60;83.70;;;;;;6097931;23;20726;-74
2021/04/17 17:50:55;;;;;;;2.90;1.00;;;12.60;83.70;;;;;;6098596;23;20183;-73
2021/04/17 17:53:22;;;;;;;2.53;1.00;;;12.60;83.10;;;;;;6098208;23;20186;-73
2021/04/17 17:55:48;;;;;;;1.97;1.00;;;12.50;83.30;;;;;;6097733;23;20207;-74
2021/04/17 17:58:14;;;;;;;1.63;0.80;;;12.50;83.80;;;;;;6098384;23;20199;-72
2021/04/17 18:00:41;;;;;;;2.60;1.00;;;12.40;84.00;;;;;;6098189;23;20190;-74
2021/04/17 18:03:07;;;;;;;2.27;1.00;;;12.40;84.30;;;;;;6098411;23;20185;-73
2021/04/17 18:05:34;;;;;;;4.30;1.10;;;12.40;85.00;;;;;;6098269;23;20183;-72
2021/04/17 18:08:01;;;;;;;3.60;0.93;;;12.40;85.20;;;;;;6097854;23;20670;-74
2021/04/17 18:10:27;;;;;;;3.57;1.00;;;12.40;85.70;;;;;;6098423;23;20180;-74
2021/04/17 18:12:53;;;;;;;1.63;1.07;;;12.30;86.40;;;;;;6097648;23;20514;-73
2021/04/17 18:15:20;;;;;;;2.97;1.30;;;12.20;89.90;;;;;;6098277;23;20292;-74
2021/04/17 18:17:46;;;;;;;3.67;1.10;;;12.10;92.00;;;;;;6097466;23;20210;-73
2021/04/17 18:20:13;;;;;;;4.20;1.27;;;11.90;93.10;;;;;;6097385;23;20184;-73
2021/04/17 18:22:41;;;;;;;3.57;1.70;;;11.90;93.50;;;;;;6098164;23;20190;-74
2021/04/17 18:25:09;;;;;;;7.70;1.60;;;11.80;94.00;;;;;;6098119;23;20184;-72
2021/04/17 18:27:36;;;;;;;2.93;1.03;;;11.70;94.20;;;;;;6097873;23;20208;-72
2021/04/17 18:30:03;;;;;;;4.60;1.53;;;11.70;94.40;;;;;;6098249;23;20300;-71
2021/04/17 18:32:30;;;;;;;6.10;1.17;;;11.60;94.60;;;;;;6098150;23;20225;-74
2021/04/17 18:34:56;;;;;;;4.37;1.30;;;11.60;94.70;;;;;;6098010;23;20179;-73
2021/04/17 18:37:22;;;;;;;2.63;1.53;;;11.50;94.90;;;;;;6097655;23;20211;-75
2021/04/17 18:39:50;;;;;;;4.43;1.40;;;11.40;95.10;;;;;;6096901;23;20179;-74
2021/04/17 18:42:16;;;;;;;3.27;1.23;;;11.40;95.40;;;;;;6092670;23;20526;-73
2021/04/17 18:44:42;;;;;;;4.43;1.23;;;11.30;95.50;;;;;;6094649;23;20500;-72
2021/04/17 18:47:09;;;;;;;6.50;1.80;;;11.30;95.70;;;;;;6096500;23;20211;-73
2021/04/17 18:49:35;;;;;;;4.47;1.90;;;11.20;95.80;;;;;;6095972;23;20180;-73
2021/04/17 18:52:01;;;;;;;4.30;1.53;;;11.00;96.30;;;;;;6097324;23;20184;-70
2021/04/17 18:54:28;;;;;;;4.20;1.70;;;11.00;96.40;;;;;;6097020;23;20186;-71
2021/04/17 18:56:55;;;;;;;21.37;7.27;;;10.90;96.50;;;;;;6096634;23;20215;-73
2021/04/17 18:59:21;;;;;;;4.10;2.00;;;10.80;96.80;;;;;;6096896;23;20631;-69
2021/04/17 19:01:47;;;;;;;5.03;1.90;;;10.80;97.00;;;;;;6096519;23;20179;-73
2021/04/17 19:04:14;;;;;;;4.43;2.30;;;10.60;97.40;;;;;;6096462;23;20187;-73
2021/04/17 19:06:40;;;;;;;5.80;2.10;;;10.60;97.70;;;;;;6096413;23;20199;-74
2021/04/17 19:09:06;;;;;;;6.40;2.30;;;10.50;97.90;;;;;;6097012;23;20380;-73
2021/04/17 19:11:37;;;;;;;4.97;1.90;;;10.50;98.20;;;;;;6096552;23;20245;-73
2021/04/17 19:14:04;;;;;;;6.00;2.03;;;10.50;98.20;;;;;;6096269;23;20187;-73
2021/04/17 19:16:30;;;;;;;8.03;2.17;;;10.50;98.20;;;;;;6095723;23;20222;-73
2021/04/17 19:18:57;;;;;;;5.70;1.70;;;10.50;98.10;;;;;;6096589;23;20187;-72
2021/04/17 19:21:25;;;;;;;5.30;1.63;;;10.50;98.20;;;;;;6096734;23;20262;-71
2021/04/17 19:23:52;;;;;;;2.23;1.47;;;10.50;98.10;;;;;;6096274;23;20285;-72
2021/04/17 19:26:18;;;;;;;6.87;2.10;;;10.50;98.00;;;;;;6096339;23;20183;-74
2021/04/17 19:28:44;;;;;;;4.63;1.83;;;10.50;98.00;;;;;;6096118;23;20191;-73
2021/04/17 19:31:11;;;;;;;5.23;1.90;;;10.50;98.00;;;;;;6096436;23;20238;-73
2021/04/17 19:33:38;;;;;;;6.07;2.13;;;10.50;98.10;;;;;;6096053;23;20234;-73
2021/04/17 19:36:05;;;;;;;3.60;1.53;;;10.40;98.10;;;;;;6096614;23;20207;-73
2021/04/17 19:38:32;;;;;;;5.13;2.00;;;10.30;98.10;;;;;;6096816;23;20180;-73
2021/04/17 19:41:02;;;;;;;3.37;2.00;;;10.30;98.10;;;;;;6096153;23;20194;-74
2021/04/17 19:43:29;;;;;;;5.80;1.80;;;10.30;98.30;;;;;;6096839;23;20180;-70
2021/04/17 19:45:56;;;;;;;4.60;1.90;;;10.30;98.40;;;;;;6096083;23;20544;-73
2021/04/17 19:48:23;;;;;;;6.23;2.33;;;10.20;98.50;;;;;;6095917;23;20212;-71
2021/04/17 19:50:49;;;;;;;4.53;1.90;;;10.20;98.50;;;;;;6096234;23;20179;-71
2021/04/17 19:53:15;;;;;;;3.43;1.43;;;10.10;98.60;;;;;;6096601;23;20471;-73
2021/04/17 19:55:42;;;;;;;1.97;1.23;;;10.00;98.60;;;;;;6096390;23;20180;-73
2021/04/17 19:58:08;;;;;;;3.93;1.60;;;9.90;99.40;;;;;;6096442;23;20639;-73
2021/04/17 20:00:34;;;;;;;3.43;1.73;;;9.80;99.80;;;;;;6096291;23;20180;-73
2021/04/17 20:03:02;;;;;;;5.23;1.60;;;9.80;99.90;;;;;;6096280;23;20203;-74
2021/04/17 20:05:29;;;;;;;1.77;1.13;;;9.70;99.90;;;;;;6096079;23;20180;-72
2021/04/17 20:07:55;;;;;;;3.27;1.60;;;9.70;99.90;;;;;;6096435;23;20531;-72
2021/04/17 20:10:22;;;;;;;3.93;1.30;;;9.70;99.90;;;;;;6096154;23;20187;-74
2021/04/17 20:12:48;;;;;;;4.33;1.50;;;9.60;99.90;;;;;;6096608;23;20184;-74
2021/04/17 20:15:14;;;;;;;3.53;1.13;;;9.60;99.90;;;;;;6096083;23;20195;-70
2021/04/17 20:17:41;;;;;;;6.20;1.53;;;9.60;99.90;;;;;;6095979;23;20222;-71
2021/04/17 20:20:08;;;;;;;2.40;0.93;;;9.60;99.90;;;;;;6096559;23;20535;-70
2021/04/17 20:22:36;;;;;;;3.33;1.23;;;9.70;99.90;;;;;;6096142;23;20179;-71
2021/04/17 20:25:02;;;;;;;2.50;1.07;;;9.60;99.90;;;;;;6096293;23;20184;-72
2021/04/17 20:27:28;;;;;;;2.77;1.00;;;9.60;99.90;;;;;;6096199;23;20200;-70
2021/04/17 20:29:54;;;;;;;2.27;1.33;;;9.60;99.90;;;;;;6096050;23;20180;-73
2021/04/17 20:32:22;;;;;;;3.90;1.60;;;9.50;99.90;;;;;;6096016;23;20215;-73
2021/04/17 20:34:48;;;;;;;3.37;1.50;;;9.60;99.90;;;;;;6096739;23;20190;-68
2021/04/17 20:37:15;;;;;;;2.87;1.30;;;9.60;99.90;;;;;;6098099;23;20259;-68
2021/04/17 20:39:42;;;;;;;3.60;1.13;;;9.70;99.90;;;;;;6095814;23;20183;-69
2021/04/17 20:42:08;;;;;;;2.70;1.23;;;9.70;99.90;;;;;;6095936;23;20523;-69
2021/04/17 20:44:35;;;;;;;4.87;1.50;;;9.60;99.90;;;;;;6097323;23;20477;-73
2021/04/17 20:47:01;;;;;;;8.13;1.60;;;9.50;99.90;;;;;;6097128;23;20282;-74
2021/04/17 20:49:28;;;;;;;4.93;1.47;;;9.50;99.90;;;;;;6097546;23;20476;-73
2021/04/17 20:51:54;;;;;;;5.80;1.40;;;9.50;99.90;;;;;;6097524;23;20195;-70
2021/04/17 20:54:20;;;;;;;2.50;1.27;;;9.50;99.90;;;;;;6097859;23;20218;-74
2021/04/17 20:56:47;;;;;;;4.43;1.40;;;9.50;99.90;;;;;;6097302;23;20215;-74
